Terminal Aerodrome Forecast
Issued by NWS

Home | Current Version | Previous Version | Graphics & Text | Print | Product List | Glossary On
Versions: 1 2 3 4 5 6 7 8 9 10 11 12 13 14 15 16 17 18 19 20 21 22
000
FTUS43 KABR 231700
TAFATY
TAF
KATY 231720Z 2318/2418 29012KT P6SM OVC080
     FM232000 30015KT P6SM OVC040
     FM240300 30020G30KT P6SM OVC050
     FM241100 33025G35KT P6SM BKN050=

USA.gov is the U.S. government's official web portal to all federal, state and local government web resources and services.